Porosity — WDF7776 — position and weather

sailwx.info

Track history (hours):
 
Tides and Currents Weather Stations Pressure Air Temp Water Temp Dewpoint Dewpoint Depression Visibility Wind Speed Wind Dir Waves Ship Positions

Porosity

Owner: Bahlburg, Bill, plano, TX. More information available from US FCC via Universal Licensing System and Coast Guard Vessel Documentation Center.

Last reported at 2016-Aug-30 04:31 UTC. Time now 2016-Aug-30 05:02 UTC.
Position N 48°32' W 123°00'.

Length 19 m.

Type: Pleasure craft. MMSI: 367488010.

Date/timePositionNaut miles runAvg speedWind from/ knotsBaromVisibWave heightAir tempDewpointWater temp
2016-Aug-30 04:31N 48°32' W 123°00'0 0.0
2016-Aug-30 03:31N 48°32' W 123°00'0 0.0
2016-Aug-30 02:22N 48°32' W 123°00'0 0.0
2016-Aug-30 01:31N 48°32' W 123°00'0 0.0
2016-Aug-30 00:31N 48°32' W 123°00'0 0.0
2016-Aug-29 23:31N 48°32' W 123°00'0 0.0
2016-Aug-29 22:31N 48°32' W 123°00'0 0.0
2016-Aug-29 21:31N 48°32' W 123°00'0 0.0
2016-Aug-29 20:31N 48°32' W 123°00'0 0.0
2016-Aug-29 19:31N 48°32' W 123°00'0 0.0
2016-Aug-29 18:33N 48°32' W 123°00'0 0.3
2016-Aug-29 17:31N 48°32' W 123°01'0 0.0
2016-Aug-29 16:31N 48°32' W 123°01'0 0.0
2016-Aug-29 15:19N 48°32' W 123°01'0 0.0
2016-Aug-29 14:28N 48°32' W 123°01'0 0.0
2016-Aug-29 13:26N 48°32' W 123°01'0 0.0
2016-Aug-29 12:28N 48°32' W 123°01'0 0.0
2016-Aug-29 11:31N 48°32' W 123°01'0 0.0
2016-Aug-29 10:31N 48°32' W 123°01'0 0.0
2016-Aug-29 09:31N 48°32' W 123°01'0 0.0
2016-Aug-29 08:31N 48°32' W 123°01'0 0.0
2016-Aug-29 07:31N 48°32' W 123°01'0 0.0
2016-Aug-29 06:28N 48°32' W 123°01'0 0.0
2016-Aug-29 05:31N 48°32' W 123°01'0 0.0
2016-Aug-29 04:31N 48°32' W 123°01'0 0.0
2016-Aug-29 03:32N 48°32' W 123°01'0 0.0
2016-Aug-29 02:31N 48°32' W 123°01'0 0.0
2016-Aug-29 01:28N 48°32' W 123°01'0 0.0
2016-Aug-29 00:29N 48°32' W 123°01'0 0.0
2016-Aug-28 23:28N 48°32' W 123°01'0 0.0
2016-Aug-28 22:31N 48°32' W 123°01'0 0.0
2016-Aug-28 21:28N 48°32' W 123°01'0 0.0
2016-Aug-28 20:31N 48°32' W 123°01'0 0.0
2016-Aug-28 19:33N 48°32' W 123°01'7 6.8
2016-Aug-28 18:30N 48°36' W 122°52'5 2.4
2016-Aug-28 16:16N 48°41' W 122°55'0 0.0
2016-Aug-28 14:31N 48°41' W 122°55'0 0.0
2016-Aug-28 13:28N 48°41' W 122°55'0 0.0
2016-Aug-28 12:28N 48°41' W 122°55'0 0.0
2016-Aug-28 10:28N 48°41' W 122°55'0 0.0
2016-Aug-28 09:18N 48°41' W 122°55'0 0.0
2016-Aug-28 07:28N 48°41' W 122°55'0 0.0
2016-Aug-28 06:07N 48°41' W 122°55'0 0.0
2016-Aug-28 05:31N 48°41' W 122°55'0 0.0
2016-Aug-28 04:19N 48°41' W 122°55'5 0.6
2016-Aug-27 19:31N 48°36' W 122°51'7 6.6
2016-Aug-27 18:25N 48°36' W 123°02'5 4.5
2016-Aug-27 17:22N 48°37' W 123°09'8 1.0
2016-Aug-27 10:06N 48°38' W 123°21'0 0.0
2016-Aug-27 08:18N 48°38' W 123°21'0 0.0
2016-Aug-27 07:24N 48°38' W 123°21'0 0.0
2016-Aug-27 06:30N 48°38' W 123°21'0 0.0
2016-Aug-27 02:30N 48°38' W 123°21'0 0.0
2016-Aug-26 22:06N 48°38' W 123°21'3 2.1
2016-Aug-26 20:31N 48°42' W 123°23'13 0.5
2016-Aug-25 19:28N 48°51' W 123°35'8 8.6
2016-Aug-25 18:32N 48°58' W 123°42'8 8.1
2016-Aug-25 17:32N 49°05' W 123°46'8 7.9
2016-Aug-25 16:29N 49°11' W 123°56'0 0.0
2016-Aug-25 14:32N 49°11' W 123°56'0 0.0
2016-Aug-25 13:03N 49°11' W 123°56'0 0.0
2016-Aug-25 12:26N 49°11' W 123°56'0 0.0
2016-Aug-25 11:08N 49°11' W 123°56'0 0.0
2016-Aug-25 10:32N 49°11' W 123°56'0 0.0
2016-Aug-25 09:20N 49°11' W 123°56'0 0.0
2016-Aug-25 08:32N 49°11' W 123°56'0 0.0
2016-Aug-25 07:32N 49°11' W 123°56'0 0.0
2016-Aug-25 04:32N 49°11' W 123°56'0 0.0
2016-Aug-25 03:29N 49°11' W 123°56'0 0.0
2016-Aug-25 02:32N 49°11' W 123°56'0 0.0
2016-Aug-25 01:17N 49°11' W 123°56'0 0.0
2016-Aug-25 00:26N 49°11' W 123°56'0 0.0
2016-Aug-24 22:20N 49°11' W 123°56'1 1.0
2016-Aug-24 21:10N 49°12' W 123°55'5 8.5
2016-Aug-24 20:33N 49°16' W 123°59'9 8.9
2016-Aug-24 19:33N 49°20' W 124°11'9 8.7
2016-Aug-24 18:30N 49°25' W 124°23'8 8.9
2016-Aug-24 17:33N 49°30' W 124°34'2 0.1
2016-Aug-23 21:13N 49°31' W 124°36'7 6.6
2016-Aug-23 20:08N 49°37' W 124°41'15 8.7
2016-Aug-23 18:26N 49°50' W 124°53'8 8.7
2016-Aug-23 17:28N 49°57' W 124°59'8 8.3
2016-Aug-23 16:32N 50°05' W 125°01'1 1.0
2016-Aug-23 15:29N 50°06' W 125°01'0 0.0
2016-Aug-23 14:29N 50°06' W 125°01'0 0.0
2016-Aug-23 13:32N 50°06' W 125°01'0 0.0
2016-Aug-23 12:32N 50°06' W 125°01'0 0.0
2016-Aug-23 11:32N 50°06' W 125°01'0 0.0
2016-Aug-23 10:32N 50°06' W 125°01'0 0.0
2016-Aug-23 09:29N 50°06' W 125°01'0 0.0
2016-Aug-23 08:32N 50°06' W 125°01'0 0.0
2016-Aug-23 07:32N 50°06' W 125°01'0 0.0
2016-Aug-23 06:32N 50°06' W 125°01'0 0.0
2016-Aug-23 05:32N 50°06' W 125°01'0 0.0
2016-Aug-23 04:32N 50°06' W 125°01'0 0.0
2016-Aug-23 03:32N 50°06' W 125°01'0 0.0
2016-Aug-23 02:32N 50°06' W 125°01'0 0.0
2016-Aug-23 01:32N 50°06' W 125°01'0 0.0
2016-Aug-23 00:32N 50°06' W 125°01'0 0.0
2016-Aug-22 23:29N 50°06' W 125°01'0 0.0
2016-Aug-22 22:32N 50°06' W 125°01'0 0.0
2016-Aug-22 21:32N 50°06' W 125°01'0 0.0
2016-Aug-22 20:32N 50°06' W 125°01'0 0.0
2016-Aug-22 19:32N 50°06' W 125°01'0 0.0
2016-Aug-22 18:32N 50°06' W 125°01'0 0.0
2016-Aug-22 17:32N 50°06' W 125°01'4 4.1
2016-Aug-22 16:33N 50°02' W 125°02'8 7.6
2016-Aug-22 15:33N 50°08' W 125°10'7 7.1
2016-Aug-22 14:33N 50°15' W 125°11'4 0.2
2016-Aug-21 19:23N 50°19' W 125°10'6 7.2
2016-Aug-21 18:33N 50°16' W 125°02'8 8.0
2016-Aug-21 17:33N 50°10' W 124°54'7 7.4
2016-Aug-21 16:32N 50°06' W 124°45'2 2.2
2016-Aug-21 15:33N 50°08' W 124°42'0 0.0
2016-Aug-21 14:30N 50°08' W 124°42'0 0.0
2016-Aug-21 13:30N 50°08' W 124°42'0 0.0
2016-Aug-21 12:33N 50°08' W 124°42'0 0.0
2016-Aug-21 11:30N 50°08' W 124°42'0 0.0
2016-Aug-21 10:33N 50°08' W 124°42'0 0.0
2016-Aug-21 09:27N 50°08' W 124°42'0 0.0
2016-Aug-21 08:33N 50°08' W 124°42'0 0.0
2016-Aug-21 07:33N 50°08' W 124°42'0 0.0
2016-Aug-21 06:27N 50°08' W 124°42'0 0.0
2016-Aug-21 05:33N 50°08' W 124°42'0 0.0
2016-Aug-21 04:33N 50°08' W 124°42'0 0.0
2016-Aug-21 03:33N 50°08' W 124°42'0 0.0
2016-Aug-21 02:30N 50°08' W 124°42'0 0.0
2016-Aug-21 01:33N 50°08' W 124°42'0 0.0
2016-Aug-21 00:30N 50°08' W 124°42'0 0.0
2016-Aug-20 23:33N 50°08' W 124°42'0 0.0
2016-Aug-20 22:27N 50°08' W 124°42'0 0.0
2016-Aug-20 21:30N 50°08' W 124°42'0 0.0
2016-Aug-20 20:09N 50°08' W 124°42'1 1.3
2016-Aug-20 19:33N 50°07' W 124°42'8 7.8
2016-Aug-20 18:30N 50°03' W 124°54'1 1.2
2016-Aug-20 17:28N 50°04' W 124°56'0 0.0
2016-Aug-20 16:31N 50°04' W 124°56'0 0.0
2016-Aug-20 15:31N 50°04' W 124°56'0 0.0
2016-Aug-20 14:31N 50°04' W 124°56'0 0.0
2016-Aug-20 13:31N 50°04' W 124°56'0 0.0
2016-Aug-20 12:31N 50°04' W 124°56'0 0.0
2016-Aug-20 11:31N 50°04' W 124°56'0 0.0
2016-Aug-20 10:32N 50°04' W 124°56'0 0.0
2016-Aug-20 09:31N 50°04' W 124°56'0 0.0
2016-Aug-20 08:31N 50°04' W 124°56'0 0.0
2016-Aug-20 07:31N 50°04' W 124°56'0 0.0
2016-Aug-20 06:31N 50°04' W 124°56'0 0.0
2016-Aug-20 05:31N 50°04' W 124°56'0 0.0
2016-Aug-20 04:31N 50°04' W 124°56'  
Track history (hours):
 
Tides and Currents Weather Stations Pressure Air Temp Water Temp Dewpoint Dewpoint Depression Visibility Wind Speed Wind Dir Waves Ship Positions

Porosity

Owner: Bahlburg, Bill, plano, TX. More information available from US FCC via Universal Licensing System and Coast Guard Vessel Documentation Center.

Last reported at 2016-Aug-30 04:31 UTC. Time now 2016-Aug-30 05:02 UTC.
Position N 48°32' W 123°00'.

Length 19 m.

Type: Pleasure craft. MMSI: 367488010.

Date/timePositionNaut miles runAvg speedWind from/ knotsBaromVisibWave heightAir tempDewpointWater temp
2016-Aug-30 04:31N 48°32' W 123°00'0 0.0
2016-Aug-30 03:31N 48°32' W 123°00'0 0.0
2016-Aug-30 02:22N 48°32' W 123°00'0 0.0
2016-Aug-30 01:31N 48°32' W 123°00'0 0.0
2016-Aug-30 00:31N 48°32' W 123°00'0 0.0
2016-Aug-29 23:31N 48°32' W 123°00'0 0.0
2016-Aug-29 22:31N 48°32' W 123°00'0 0.0
2016-Aug-29 21:31N 48°32' W 123°00'0 0.0
2016-Aug-29 20:31N 48°32' W 123°00'0 0.0
2016-Aug-29 19:31N 48°32' W 123°00'0 0.0
2016-Aug-29 18:33N 48°32' W 123°00'0 0.3
2016-Aug-29 17:31N 48°32' W 123°01'0 0.0
2016-Aug-29 16:31N 48°32' W 123°01'0 0.0
2016-Aug-29 15:19N 48°32' W 123°01'0 0.0
2016-Aug-29 14:28N 48°32' W 123°01'0 0.0
2016-Aug-29 13:26N 48°32' W 123°01'0 0.0
2016-Aug-29 12:28N 48°32' W 123°01'0 0.0
2016-Aug-29 11:31N 48°32' W 123°01'0 0.0
2016-Aug-29 10:31N 48°32' W 123°01'0 0.0
2016-Aug-29 09:31N 48°32' W 123°01'0 0.0
2016-Aug-29 08:31N 48°32' W 123°01'0 0.0
2016-Aug-29 07:31N 48°32' W 123°01'0 0.0
2016-Aug-29 06:28N 48°32' W 123°01'0 0.0
2016-Aug-29 05:31N 48°32' W 123°01'0 0.0
2016-Aug-29 04:31N 48°32' W 123°01'0 0.0
2016-Aug-29 03:32N 48°32' W 123°01'0 0.0
2016-Aug-29 02:31N 48°32' W 123°01'0 0.0
2016-Aug-29 01:28N 48°32' W 123°01'0 0.0
2016-Aug-29 00:29N 48°32' W 123°01'0 0.0
2016-Aug-28 23:28N 48°32' W 123°01'0 0.0
2016-Aug-28 22:31N 48°32' W 123°01'0 0.0
2016-Aug-28 21:28N 48°32' W 123°01'0 0.0
2016-Aug-28 20:31N 48°32' W 123°01'0 0.0
2016-Aug-28 19:33N 48°32' W 123°01'7 6.8
2016-Aug-28 18:30N 48°36' W 122°52'5 2.4
2016-Aug-28 16:16N 48°41' W 122°55'0 0.0
2016-Aug-28 14:31N 48°41' W 122°55'0 0.0
2016-Aug-28 13:28N 48°41' W 122°55'0 0.0
2016-Aug-28 12:28N 48°41' W 122°55'0 0.0
2016-Aug-28 10:28N 48°41' W 122°55'0 0.0
2016-Aug-28 09:18N 48°41' W 122°55'0 0.0
2016-Aug-28 07:28N 48°41' W 122°55'0 0.0
2016-Aug-28 06:07N 48°41' W 122°55'0 0.0
2016-Aug-28 05:31N 48°41' W 122°55'0 0.0
2016-Aug-28 04:19N 48°41' W 122°55'5 0.6
2016-Aug-27 19:31N 48°36' W 122°51'7 6.6
2016-Aug-27 18:25N 48°36' W 123°02'5 4.5
2016-Aug-27 17:22N 48°37' W 123°09'8 1.0
2016-Aug-27 10:06N 48°38' W 123°21'0 0.0
2016-Aug-27 08:18N 48°38' W 123°21'0 0.0
2016-Aug-27 07:24N 48°38' W 123°21'0 0.0
2016-Aug-27 06:30N 48°38' W 123°21'0 0.0
2016-Aug-27 02:30N 48°38' W 123°21'0 0.0
2016-Aug-26 22:06N 48°38' W 123°21'3 2.1
2016-Aug-26 20:31N 48°42' W 123°23'13 0.5
2016-Aug-25 19:28N 48°51' W 123°35'8 8.6
2016-Aug-25 18:32N 48°58' W 123°42'8 8.1
2016-Aug-25 17:32N 49°05' W 123°46'8 7.9
2016-Aug-25 16:29N 49°11' W 123°56'0 0.0
2016-Aug-25 14:32N 49°11' W 123°56'0 0.0
2016-Aug-25 13:03N 49°11' W 123°56'0 0.0
2016-Aug-25 12:26N 49°11' W 123°56'0 0.0
2016-Aug-25 11:08N 49°11' W 123°56'0 0.0
2016-Aug-25 10:32N 49°11' W 123°56'0 0.0
2016-Aug-25 09:20N 49°11' W 123°56'0 0.0
2016-Aug-25 08:32N 49°11' W 123°56'0 0.0
2016-Aug-25 07:32N 49°11' W 123°56'0 0.0
2016-Aug-25 04:32N 49°11' W 123°56'0 0.0
2016-Aug-25 03:29N 49°11' W 123°56'0 0.0
2016-Aug-25 02:32N 49°11' W 123°56'0 0.0
2016-Aug-25 01:17N 49°11' W 123°56'0 0.0
2016-Aug-25 00:26N 49°11' W 123°56'0 0.0
2016-Aug-24 22:20N 49°11' W 123°56'1 1.0
2016-Aug-24 21:10N 49°12' W 123°55'5 8.5
2016-Aug-24 20:33N 49°16' W 123°59'9 8.9
2016-Aug-24 19:33N 49°20' W 124°11'9 8.7
2016-Aug-24 18:30N 49°25' W 124°23'8 8.9
2016-Aug-24 17:33N 49°30' W 124°34'2 0.1
2016-Aug-23 21:13N 49°31' W 124°36'7 6.6
2016-Aug-23 20:08N 49°37' W 124°41'15 8.7
2016-Aug-23 18:26N 49°50' W 124°53'8 8.7
2016-Aug-23 17:28N 49°57' W 124°59'8 8.3
2016-Aug-23 16:32N 50°05' W 125°01'1 1.0
2016-Aug-23 15:29N 50°06' W 125°01'0 0.0
2016-Aug-23 14:29N 50°06' W 125°01'0 0.0
2016-Aug-23 13:32N 50°06' W 125°01'0 0.0
2016-Aug-23 12:32N 50°06' W 125°01'0 0.0
2016-Aug-23 11:32N 50°06' W 125°01'0 0.0
2016-Aug-23 10:32N 50°06' W 125°01'0 0.0
2016-Aug-23 09:29N 50°06' W 125°01'0 0.0
2016-Aug-23 08:32N 50°06' W 125°01'0 0.0
2016-Aug-23 07:32N 50°06' W 125°01'0 0.0
2016-Aug-23 06:32N 50°06' W 125°01'0 0.0
2016-Aug-23 05:32N 50°06' W 125°01'0 0.0
2016-Aug-23 04:32N 50°06' W 125°01'0 0.0
2016-Aug-23 03:32N 50°06' W 125°01'0 0.0
2016-Aug-23 02:32N 50°06' W 125°01'0 0.0
2016-Aug-23 01:32N 50°06' W 125°01'0 0.0
2016-Aug-23 00:32N 50°06' W 125°01'0 0.0
2016-Aug-22 23:29N 50°06' W 125°01'0 0.0
2016-Aug-22 22:32N 50°06' W 125°01'0 0.0
2016-Aug-22 21:32N 50°06' W 125°01'0 0.0
2016-Aug-22 20:32N 50°06' W 125°01'0 0.0
2016-Aug-22 19:32N 50°06' W 125°01'0 0.0
2016-Aug-22 18:32N 50°06' W 125°01'0 0.0
2016-Aug-22 17:32N 50°06' W 125°01'4 4.1
2016-Aug-22 16:33N 50°02' W 125°02'8 7.6
2016-Aug-22 15:33N 50°08' W 125°10'7 7.1
2016-Aug-22 14:33N 50°15' W 125°11'4 0.2
2016-Aug-21 19:23N 50°19' W 125°10'6 7.2
2016-Aug-21 18:33N 50°16' W 125°02'8 8.0
2016-Aug-21 17:33N 50°10' W 124°54'7 7.4
2016-Aug-21 16:32N 50°06' W 124°45'2 2.2
2016-Aug-21 15:33N 50°08' W 124°42'0 0.0
2016-Aug-21 14:30N 50°08' W 124°42'0 0.0
2016-Aug-21 13:30N 50°08' W 124°42'0 0.0
2016-Aug-21 12:33N 50°08' W 124°42'0 0.0
2016-Aug-21 11:30N 50°08' W 124°42'0 0.0
2016-Aug-21 10:33N 50°08' W 124°42'0 0.0
2016-Aug-21 09:27N 50°08' W 124°42'0 0.0
2016-Aug-21 08:33N 50°08' W 124°42'0 0.0
2016-Aug-21 07:33N 50°08' W 124°42'0 0.0
2016-Aug-21 06:27N 50°08' W 124°42'0 0.0
2016-Aug-21 05:33N 50°08' W 124°42'0 0.0
2016-Aug-21 04:33N 50°08' W 124°42'0 0.0
2016-Aug-21 03:33N 50°08' W 124°42'0 0.0
2016-Aug-21 02:30N 50°08' W 124°42'0 0.0
2016-Aug-21 01:33N 50°08' W 124°42'0 0.0
2016-Aug-21 00:30N 50°08' W 124°42'0 0.0
2016-Aug-20 23:33N 50°08' W 124°42'0 0.0
2016-Aug-20 22:27N 50°08' W 124°42'0 0.0
2016-Aug-20 21:30N 50°08' W 124°42'0 0.0
2016-Aug-20 20:09N 50°08' W 124°42'1 1.3
2016-Aug-20 19:33N 50°07' W 124°42'8 7.8
2016-Aug-20 18:30N 50°03' W 124°54'1 1.2
2016-Aug-20 17:28N 50°04' W 124°56'0 0.0
2016-Aug-20 16:31N 50°04' W 124°56'0 0.0
2016-Aug-20 15:31N 50°04' W 124°56'0 0.0
2016-Aug-20 14:31N 50°04' W 124°56'0 0.0
2016-Aug-20 13:31N 50°04' W 124°56'0 0.0
2016-Aug-20 12:31N 50°04' W 124°56'0 0.0
2016-Aug-20 11:31N 50°04' W 124°56'0 0.0
2016-Aug-20 10:32N 50°04' W 124°56'0 0.0
2016-Aug-20 09:31N 50°04' W 124°56'0 0.0
2016-Aug-20 08:31N 50°04' W 124°56'0 0.0
2016-Aug-20 07:31N 50°04' W 124°56'0 0.0
2016-Aug-20 06:31N 50°04' W 124°56'0 0.0
2016-Aug-20 05:31N 50°04' W 124°56'0 0.0
2016-Aug-20 04:31N 50°04' W 124°56'  

Dump ship's entire track history